createdAt,value
2023-01-08T00:03:03.818Z,95.69
2023-01-08T00:08:11.042Z,95.47
2023-01-08T00:13:19.579Z,95.22
2023-01-08T00:18:27.705Z,95.36
2023-01-08T00:23:35.189Z,95.09
2023-01-08T00:28:44.227Z,95.35
2023-01-08T00:33:51.223Z,95.23
2023-01-08T00:38:58.484Z,95.12
2023-01-08T00:44:07.377Z,95.07
2023-01-08T00:49:14.016Z,95.02
2023-01-08T00:54:20.904Z,94.89
2023-01-08T00:59:29.411Z,94.57
2023-01-08T01:04:37.751Z,94.51
2023-01-08T01:09:45.112Z,94.10
2023-01-08T01:14:52.977Z,94.38
2023-01-08T01:19:59.445Z,94.19
2023-01-08T01:25:07.052Z,94.23
2023-01-08T01:30:15.683Z,94.14
2023-01-08T01:35:22.104Z,94.02
2023-01-08T01:40:28.898Z,93.98
2023-01-08T01:45:37.396Z,93.90
2023-01-08T01:50:48.812Z,93.74
2023-01-08T01:55:55.965Z,93.74
2023-01-08T02:01:08.360Z,93.57
2023-01-08T02:06:35.070Z,93.57
2023-01-08T02:12:10.816Z,93.76
2023-01-08T02:17:25.871Z,93.25
2023-01-08T02:22:49.675Z,93.69
2023-01-08T02:28:02.555Z,93.45
2023-01-08T02:33:09.701Z,93.63
2023-01-08T02:38:19.636Z,93.46
2023-01-08T02:43:32.605Z,93.43
2023-01-08T02:48:43.428Z,93.40
2023-01-08T02:53:53.957Z,93.01
2023-01-08T02:59:03.817Z,93.19
2023-01-08T03:04:16.234Z,92.82
2023-01-08T03:09:23.008Z,93.04
2023-01-08T03:14:37.379Z,93.18
2023-01-08T03:19:50.723Z,92.87
2023-01-08T03:25:00.687Z,92.92
2023-01-08T03:30:11.996Z,93.14
2023-01-08T03:35:23.770Z,93.27
2023-01-08T03:40:36.628Z,93.36
2023-01-08T03:45:51.077Z,93.12
2023-01-08T03:50:57.641Z,93.29
2023-01-08T03:56:04.720Z,93.35
2023-01-08T04:01:12.846Z,93.54
2023-01-08T04:06:19.371Z,93.41
2023-01-08T04:11:26.034Z,93.32
2023-01-08T04:16:36.483Z,93.31
2023-01-08T04:21:44.051Z,93.31
2023-01-08T04:26:50.750Z,93.42
2023-01-08T04:31:58.845Z,93.23
2023-01-08T04:37:05.747Z,93.25
2023-01-08T04:42:13.105Z,93.03
2023-01-08T04:47:21.383Z,92.93
2023-01-08T04:52:29.679Z,92.89
2023-01-08T04:57:36.314Z,92.95
2023-01-08T05:02:44.409Z,92.95
2023-01-08T05:07:50.980Z,92.73
2023-01-08T05:13:01.356Z,92.57
2023-01-08T05:18:09.644Z,92.42
2023-01-08T05:23:16.212Z,92.64
2023-01-08T05:28:22.566Z,92.48
2023-01-08T05:33:30.652Z,92.52
2023-01-08T05:38:37.056Z,92.30
2023-01-08T05:43:43.536Z,92.34
2023-01-08T05:48:51.655Z,92.19
2023-01-08T05:53:58.313Z,92.36
2023-01-08T05:59:05.071Z,92.39
2023-01-08T06:04:13.429Z,92.54
2023-01-08T06:09:20.730Z,92.24
2023-01-08T06:14:27.163Z,92.42
2023-01-08T06:19:35.171Z,92.26
2023-01-08T06:24:42.048Z,92.15
2023-01-08T06:29:49.081Z,92.10
2023-01-08T06:34:57.026Z,92.20
2023-01-08T06:40:03.928Z,92.13
2023-01-08T06:45:12.373Z,92.37
2023-01-08T06:50:22.035Z,92.34
2023-01-08T06:55:29.634Z,92.30
2023-01-08T07:00:36.430Z,92.34
2023-01-08T07:05:44.621Z,92.34
2023-01-08T07:10:51.393Z,92.53
2023-01-08T07:15:58.101Z,92.64
2023-01-08T07:21:08.129Z,92.58
2023-01-08T07:26:15.993Z,92.78
2023-01-08T07:31:22.671Z,92.40
2023-01-08T07:36:30.763Z,92.53
2023-01-08T07:41:37.666Z,92.40
2023-01-08T07:46:44.520Z,92.26
2023-01-08T07:51:53.708Z,92.22
2023-01-08T07:56:59.657Z,92.27
2023-01-08T08:02:07.005Z,91.84
2023-01-08T08:07:15.361Z,91.86
2023-01-08T08:12:22.018Z,91.84
2023-01-08T08:17:29.052Z,92.01
2023-01-08T08:22:37.305Z,92.10
2023-01-08T08:27:44.375Z,92.00
2023-01-08T08:32:51.038Z,92.05
2023-01-08T08:38:00.261Z,92.04
2023-01-08T08:43:07.367Z,92.30
2023-01-08T08:48:14.209Z,91.96
2023-01-08T08:53:22.517Z,91.98
2023-01-08T08:58:29.548Z,91.80
2023-01-08T09:03:42.639Z,91.75
2023-01-08T09:08:50.881Z,91.69
2023-01-08T09:13:57.946Z,91.61
2023-01-08T09:19:04.511Z,91.59
2023-01-08T09:24:13.576Z,91.66
2023-01-08T09:29:20.539Z,91.62
2023-01-08T09:34:27.163Z,91.76
2023-01-08T09:39:35.551Z,91.68
2023-01-08T09:44:47.362Z,91.80
2023-01-08T09:49:58.535Z,91.69
2023-01-08T09:55:15.126Z,91.70
2023-01-08T10:00:28.407Z,91.71
2023-01-08T10:05:35.239Z,91.72
2023-01-08T10:10:46.987Z,91.74
2023-01-08T10:15:54.796Z,91.17
2023-01-08T10:21:01.580Z,91.12
2023-01-08T10:26:10.130Z,91.33
2023-01-08T10:31:18.979Z,91.41
2023-01-08T10:36:29.115Z,91.02
2023-01-08T10:41:42.533Z,90.98
2023-01-08T10:46:52.260Z,90.98
2023-01-08T10:51:59.943Z,91.03
2023-01-08T10:57:27.473Z,91.28
2023-01-08T11:02:39.328Z,91.19
2023-01-08T11:07:53.680Z,91.07
2023-01-08T11:13:06.108Z,91.07
2023-01-08T11:18:22.459Z,91.36
2023-01-08T11:23:30.755Z,91.14
2023-01-08T11:28:56.765Z,91.07
2023-01-08T11:34:14.100Z,91.25
2023-01-08T11:39:21.453Z,91.21
2023-01-08T11:44:40.936Z,91.16
2023-01-08T11:50:12.724Z,91.27
2023-01-08T11:55:34.049Z,91.02
2023-01-08T12:01:13.324Z,90.71
2023-01-08T12:06:35.113Z,90.24
2023-01-08T12:11:53.802Z,90.53
2023-01-08T12:17:32.321Z,90.40
2023-01-08T12:22:51.511Z,90.41
2023-01-08T12:28:06.131Z,90.48
2023-01-08T12:33:21.506Z,90.27
2023-01-08T12:38:34.323Z,90.09
2023-01-08T12:43:52.369Z,89.68
2023-01-08T12:49:02.670Z,89.71
2023-01-08T12:54:21.481Z,89.79
2023-01-08T12:59:40.715Z,89.69
2023-01-08T13:04:50.359Z,89.38
2023-01-08T13:10:00.695Z,88.93
2023-01-08T13:15:10.190Z,88.77
2023-01-08T13:20:25.760Z,88.56
2023-01-08T13:25:35.679Z,88.57
2023-01-08T13:30:46.855Z,88.45
2023-01-08T13:36:08.634Z,88.13
2023-01-08T13:41:28.604Z,88.42
2023-01-08T13:46:41.776Z,88.43
2023-01-08T13:51:51.363Z,87.92
2023-01-08T13:57:12.977Z,87.80
2023-01-08T14:02:31.563Z,87.78
2023-01-08T14:07:44.285Z,87.17
2023-01-08T14:12:52.824Z,86.93
2023-01-08T14:18:00.509Z,87.13
2023-01-08T14:23:19.195Z,86.58
2023-01-08T14:28:26.113Z,86.81
2023-01-08T14:33:37.168Z,87.26
2023-01-08T14:38:50.628Z,87.00
2023-01-08T14:43:57.951Z,87.28
2023-01-08T14:49:05.046Z,87.13
2023-01-08T14:54:23.634Z,87.38
2023-01-08T14:59:35.401Z,87.44
2023-01-08T15:04:42.431Z,87.50
2023-01-08T15:10:01.659Z,87.56
2023-01-08T15:15:14.194Z,87.80
2023-01-08T15:20:24.272Z,88.18
2023-01-08T15:25:33.469Z,88.00
2023-01-08T15:30:46.861Z,88.29
2023-01-08T15:35:54.064Z,88.50
2023-01-08T15:41:02.567Z,88.52
2023-01-08T15:46:12.999Z,88.50
2023-01-08T15:51:20.032Z,88.41
2023-01-08T15:56:30.058Z,88.48
2023-01-08T16:01:37.499Z,88.11
2023-01-08T16:06:47.366Z,87.97
2023-01-08T16:11:56.540Z,88.12
2023-01-08T16:17:05.061Z,87.79
2023-01-08T16:22:13.551Z,88.57
2023-01-08T16:27:23.414Z,88.63
2023-01-08T16:32:30.925Z,88.57
2023-01-08T16:37:39.341Z,89.18
2023-01-08T16:42:49.713Z,88.83
2023-01-08T16:47:58.219Z,88.11
2023-01-08T16:53:05.882Z,87.90
2023-01-08T16:58:14.815Z,88.18
2023-01-08T17:03:22.261Z,87.99
2023-01-08T17:08:30.674Z,88.07
2023-01-08T17:13:40.617Z,88.00
2023-01-08T17:18:49.163Z,87.87
2023-01-08T17:23:56.407Z,87.86
2023-01-08T17:29:18.788Z,87.76
2023-01-08T17:34:27.424Z,87.66
2023-01-08T17:39:36.467Z,87.69
2023-01-08T17:44:47.225Z,87.47
2023-01-08T17:49:59.184Z,87.66
2023-01-08T17:55:08.371Z,87.36
2023-01-08T18:00:21.690Z,87.32
2023-01-08T18:05:30.909Z,87.05
2023-01-08T18:10:40.767Z,86.79
2023-01-08T18:15:50.388Z,87.46
2023-01-08T18:20:57.958Z,87.71
2023-01-08T18:26:08.241Z,87.43
2023-01-08T18:31:18.506Z,87.33
2023-01-08T18:36:27.140Z,87.53
2023-01-08T18:41:51.609Z,87.45
2023-01-08T18:47:00.974Z,87.88
2023-01-08T18:52:12.974Z,88.29
2023-01-08T18:57:22.726Z,88.45
2023-01-08T19:02:34.615Z,88.44
2023-01-08T19:07:44.658Z,88.49
2023-01-08T19:12:52.949Z,88.56
2023-01-08T19:18:06.241Z,88.92
2023-01-08T19:23:20.095Z,88.71
2023-01-08T19:28:27.915Z,88.75
2023-01-08T19:33:37.719Z,88.72
2023-01-08T19:38:52.954Z,88.67
2023-01-08T19:44:03.148Z,88.73
2023-01-08T19:49:16.990Z,88.91
2023-01-08T19:54:26.774Z,88.67
2023-01-08T19:59:35.332Z,88.37
2023-01-08T20:04:47.520Z,88.64
2023-01-08T20:09:55.545Z,88.79
2023-01-08T20:15:03.199Z,88.95
2023-01-08T20:20:16.428Z,88.66
2023-01-08T20:25:25.666Z,88.64
2023-01-08T20:30:35.221Z,88.63
2023-01-08T20:35:44.447Z,88.85
2023-01-08T20:40:55.468Z,88.84
2023-01-08T20:46:03.134Z,88.94
2023-01-08T20:51:14.363Z,88.79
2023-01-08T20:56:24.911Z,88.95
2023-01-08T21:01:34.573Z,89.33
2023-01-08T21:06:46.663Z,89.07
2023-01-08T21:11:55.136Z,89.36
2023-01-08T21:17:03.261Z,89.10
2023-01-08T21:22:12.351Z,89.32
2023-01-08T21:27:18.817Z,89.44
2023-01-08T21:32:27.323Z,89.49
2023-01-08T21:37:37.452Z,89.49
2023-01-08T21:43:01.588Z,89.63
2023-01-08T21:48:09.176Z,89.61
2023-01-08T21:53:36.581Z,89.59
2023-01-08T21:58:43.383Z,89.90
2023-01-08T22:03:50.224Z,90.10
2023-01-08T22:08:58.816Z,90.06
2023-01-08T22:14:07.301Z,90.11
2023-01-08T22:19:19.577Z,89.89
2023-01-08T22:24:27.979Z,89.85
2023-01-08T22:29:35.912Z,89.78
2023-01-08T22:34:47.546Z,89.54
2023-01-08T22:39:55.946Z,89.93
2023-01-08T22:45:02.589Z,89.95
2023-01-08T22:50:11.167Z,89.85
2023-01-08T22:55:19.647Z,89.75
2023-01-08T23:00:26.396Z,90.01
2023-01-08T23:05:33.016Z,89.85
2023-01-08T23:10:42.773Z,89.81
2023-01-08T23:15:49.669Z,89.97
2023-01-08T23:21:02.298Z,90.00
2023-01-08T23:26:14.569Z,90.09
2023-01-08T23:31:23.959Z,90.13
2023-01-08T23:36:30.501Z,89.83
2023-01-08T23:41:40.591Z,90.19
2023-01-08T23:46:47.523Z,90.20
2023-01-08T23:51:55.615Z,90.10
2023-01-08T23:57:06.437Z,90.34
